^^
Datos históricos de la estación: Murcia-Puente Tocinos
Diario Informe para Septiembre 14, 2019 Unidades:  Ambas    Ingés   Métrico
Diario Semanal Mensual Anual
  Máxima: Mínima: Promedio:
Temperatura: 98.8 °F /  37.1 °C 75.9 °F /  24.4 °C 84.9 °F /  29.4 °C
Punto de rocio: 71.6 °F /  22 °C 51.3 °F /  10.7 °C 63.1 °F /  17.3 °C
Humedad: 81% 22.1% 54%
Velocidad viento: 13.5mph /  21.7km/h - 6.9mph /  11.1km/h
Racha viento: 26.5mph /  42.6km/h - -
Viento- - Sur
Presión: 29.8 in /  1010.5 hPa 29.7 in /  1006.4 hPa -
Precipitación: 0 in /  0.0 mm    
 
 
Tabla de datos para Septiembre 14, 2019
Hora Temperatura Punto de rocio Presión Viento Velocidad viento Racha viento Humedad Intensidad lluvia(por hora) Nubes
00:04 78.6 °F /  25.9 °C 70.7 °F /  21.5 °C 29.8in /  1010.5hPa NE 5.4mph /  8.7km/h 10.4mph /  16.7km/h 77% 0in /  0.0mm
00:09 78.4 °F /  25.8 °C 70.5 °F /  21.4 °C 29.8in /  1010.5hPa NE 5.6mph /  9km/h 10mph /  16.1km/h 77% 0in /  0.0mm
00:14 78.4 °F /  25.8 °C 70.5 °F /  21.4 °C 29.8in /  1010.5hPa NE 5.9mph /  9.5km/h 9mph /  14.5km/h 77% 0in /  0.0mm
00:19 78.4 °F /  25.8 °C 70.5 °F /  21.4 °C 29.8in /  1010.5hPa NNE 5.4mph /  8.7km/h 8mph /  12.9km/h 77% 0in /  0.0mm
00:24 78.4 °F /  25.8 °C 70.5 °F /  21.4 °C 29.8in /  1010.5hPa NE 4.3mph /  6.9km/h 7.4mph /  11.9km/h 77% 0in /  0.0mm
00:29 78.3 °F /  25.7 °C 70.7 °F /  21.5 °C 29.8in /  1010.5hPa NE 4.6mph /  7.4km/h 9.2mph /  14.8km/h 77.6% 0in /  0.0mm
00:34 78.3 °F /  25.7 °C 70.9 °F /  21.6 °C 29.8in /  1010.5hPa NE 5.2mph /  8.4km/h 9mph /  14.5km/h 78% 0in /  0.0mm
00:39 78.3 °F /  25.7 °C 70.9 °F /  21.6 °C 29.8in /  1010.4hPa NE 4.9mph /  7.9km/h 7mph /  11.3km/h 78% 0in /  0.0mm
00:44 78.3 °F /  25.7 °C 70.9 °F /  21.6 °C 29.8in /  1010.4hPa NE 4.3mph /  6.9km/h 8.1mph /  13km/h 78% 0in /  0.0mm
00:49 78.3 °F /  25.7 °C 70.9 °F /  21.6 °C 29.8in /  1010.4hPa NNE 4.3mph /  6.9km/h 8mph /  12.9km/h 78% 0in /  0.0mm
00:54 78.3 °F /  25.7 °C 70.7 °F /  21.5 °C 29.8in /  1010.4hPa NNE 4.3mph /  6.9km/h 6.2mph /  10km/h 78% 0in /  0.0mm
00:59 78.1 °F /  25.6 °C 70.9 °F /  21.6 °C 29.8in /  1010.4hPa NNE 4mph /  6.5km/h 6mph /  9.7km/h 78.5% 0in /  0.0mm
01:04 78.1 °F /  25.6 °C 71.1 °F /  21.7 °C 29.8in /  1010.4hPa NNE 3.6mph /  5.8km/h 6mph /  9.7km/h 79% 0in /  0.0mm
01:09 78.1 °F /  25.6 °C 70.9 °F /  21.6 °C 29.8in /  1010.4hPa NNE 3.6mph /  5.8km/h 6.2mph /  10km/h 79% 0in /  0.0mm
01:14 77.9 °F /  25.5 °C 70.9 °F /  21.6 °C 29.8in /  1010.4hPa NE 3.6mph /  5.8km/h 6mph /  9.7km/h 79% 0in /  0.0mm
01:19 77.7 °F /  25.4 °C 70.7 °F /  21.5 °C 29.8in /  1010.4hPa NE 3.6mph /  5.8km/h 6mph /  9.7km/h 79% 0in /  0.0mm
01:24 77.7 °F /  25.4 °C 71.1 °F /  21.7 °C 29.8in /  1010.4hPa NE 3.6mph /  5.8km/h 6.9mph /  11.1km/h 79.9% 0in /  0.0mm
01:29 77.7 °F /  25.4 °C 71.1 °F /  21.7 °C 29.8in /  1010.4hPa NE 3.4mph /  5.5km/h 7mph /  11.3km/h 80% 0in /  0.0mm
01:34 77.7 °F /  25.4 °C 71.1 °F /  21.7 °C 29.8in /  1010.4hPa NE 3.1mph /  5km/h 5.9mph /  9.5km/h 80% 0in /  0.0mm
01:39 77.7 °F /  25.4 °C 71.1 °F /  21.7 °C 29.8in /  1010.0hPa NE 3.1mph /  5km/h 6mph /  9.7km/h 80% 0in /  0.0mm
01:44 77.7 °F /  25.4 °C 71.1 °F /  21.7 °C 29.8in /  1010.0hPa NE 3.1mph /  5km/h 6mph /  9.7km/h 80% 0in /  0.0mm
01:49 77.7 °F /  25.4 °C 71.1 °F /  21.7 °C 29.8in /  1010.0hPa NE 3mph /  4.9km/h 6mph /  9.7km/h 80% 0in /  0.0mm
01:54 77.7 °F /  25.4 °C 71.1 °F /  21.7 °C 29.8in /  1009.7hPa NE 2.9mph /  4.7km/h 6mph /  9.7km/h 80% 0in /  0.0mm
01:59 77.7 °F /  25.4 °C 71.1 °F /  21.7 °C 29.8in /  1009.7hPa NE 3mph /  4.8km/h 5mph /  8km/h 80% 0in /  0.0mm
02:04 77.7 °F /  25.4 °C 71.1 °F /  21.7 °C 29.8in /  1009.7hPa NE 3.1mph /  5km/h 5mph /  8km/h 80% 0in /  0.0mm
02:09 77.7 °F /  25.4 °C 71.1 °F /  21.7 °C 29.8in /  1009.7hPa NO 3mph /  4.9km/h 5.2mph /  8.4km/h 80% 0in /  0.0mm
02:14 77.5 °F /  25.3 °C 71.1 °F /  21.7 °C 29.8in /  1009.7hPa NO 2.9mph /  4.7km/h 5mph /  8km/h 80% 0in /  0.0mm
02:19 77.5 °F /  25.3 °C 70.9 °F /  21.6 °C 29.8in /  1009.7hPa NO 2.9mph /  4.7km/h 5mph /  8km/h 80% 0in /  0.0mm
02:24 77.5 °F /  25.3 °C 71.1 °F /  21.7 °C 29.8in /  1009.4hPa NO 2.9mph /  4.7km/h 5mph /  8km/h 80% 0in /  0.0mm
02:29 77.7 °F /  25.4 °C 71.1 °F /  21.7 °C 29.8in /  1009.4hPa ONO 2.7mph /  4.4km/h 4mph /  6.4km/h 80% 0in /  0.0mm
02:34 77.7 °F /  25.4 °C 71.2 °F /  21.8 °C 29.8in /  1009.5hPa Oeste 2.4mph /  3.9km/h 4.7mph /  7.6km/h 80.3% 0in /  0.0mm
02:39 77.7 °F /  25.4 °C 71.4 °F /  21.9 °C 29.8in /  1009.5hPa Oeste 2.5mph /  4.1km/h 5.9mph /  9.5km/h 81% 0in /  0.0mm
02:44 77.5 °F /  25.3 °C 71.2 °F /  21.8 °C 29.8in /  1009.5hPa Oeste 2.9mph /  4.7km/h 6mph /  9.7km/h 81% 0in /  0.0mm
02:49 77.5 °F /  25.3 °C 71.2 °F /  21.8 °C 29.8in /  1009.5hPa OSO 2.7mph /  4.4km/h 5mph /  8km/h 81% 0in /  0.0mm
02:54 77.7 °F /  25.4 °C 71.4 °F /  21.9 °C 29.8in /  1009.4hPa Oeste 2.4mph /  3.9km/h 4.7mph /  7.6km/h 81% 0in /  0.0mm
02:59 77.5 °F /  25.3 °C 71.2 °F /  21.8 °C 29.8in /  1009.4hPa Oeste 2.5mph /  4.1km/h 5mph /  8km/h 81% 0in /  0.0mm
03:04 77.5 °F /  25.3 °C 71.2 °F /  21.8 °C 29.8in /  1009.4hPa Oeste 2.9mph /  4.7km/h 5.2mph /  8.4km/h 81% 0in /  0.0mm
03:09 77.5 °F /  25.3 °C 71.2 °F /  21.8 °C 29.8in /  1009.1hPa Oeste 2.9mph /  4.7km/h 5mph /  8km/h 81% 0in /  0.0mm
03:14 77.7 °F /  25.4 °C 71.4 °F /  21.9 °C 29.8in /  1009.1hPa Oeste 2.9mph /  4.7km/h 5mph /  8km/h 81% 0in /  0.0mm
03:19 77.7 °F /  25.4 °C 71.4 °F /  21.9 °C 29.8in /  1009.1hPa Oeste 2.7mph /  4.4km/h 5.2mph /  8.4km/h 81% 0in /  0.0mm
03:24 77.5 °F /  25.3 °C 71.2 °F /  21.8 °C 29.8in /  1009.0hPa Oeste 2.4mph /  3.9km/h 5mph /  8km/h 81% 0in /  0.0mm
03:29 77.5 °F /  25.3 °C 71.2 °F /  21.8 °C 29.8in /  1009.0hPa OSO 2.3mph /  3.7km/h 5.2mph /  8.4km/h 81% 0in /  0.0mm
03:34 77.7 °F /  25.4 °C 71.4 °F /  21.9 °C 29.8in /  1009.0hPa OSO 2mph /  3.2km/h 5.9mph /  9.5km/h 81% 0in /  0.0mm
03:39 77.7 °F /  25.4 °C 71.4 °F /  21.9 °C 29.8in /  1008.9hPa OSO 2.5mph /  4km/h 6.2mph /  10km/h 81% 0in /  0.0mm
03:44 77.9 °F /  25.5 °C 71.6 °F /  22 °C 29.8in /  1008.9hPa SO 3.6mph /  5.8km/h 6.9mph /  11.1km/h 81% 0in /  0.0mm
03:49 78.1 °F /  25.6 °C 71.4 °F /  21.9 °C 29.8in /  1008.9hPa Oeste 3.7mph /  6km/h 7mph /  11.3km/h 80.4% 0in /  0.0mm
03:54 77.9 °F /  25.5 °C 71.2 °F /  21.8 °C 29.8in /  1008.8hPa OSO 4mph /  6.5km/h 7mph /  11.3km/h 80% 0in /  0.0mm
03:59 77.9 °F /  25.5 °C 71.2 °F /  21.8 °C 29.8in /  1008.8hPa OSO 4.1mph /  6.6km/h 7mph /  11.3km/h 80% 0in /  0.0mm
04:04 77.7 °F /  25.4 °C 71.1 °F /  21.7 °C 29.8in /  1008.8hPa OSO 4.3mph /  6.9km/h 8.1mph /  13km/h 80% 0in /  0.0mm
04:09 77.7 °F /  25.4 °C 71.2 °F /  21.8 °C 29.8in /  1008.8hPa OSO 4.3mph /  6.9km/h 8.1mph /  13km/h 80.7% 0in /  0.0mm
04:14 77.7 °F /  25.4 °C 71.2 °F /  21.8 °C 29.8in /  1008.8hPa OSO 4.3mph /  6.9km/h 8mph /  12.9km/h 80.2% 0in /  0.0mm
04:19 77.7 °F /  25.4 °C 71.1 °F /  21.7 °C 29.8in /  1008.8hPa OSO 4.3mph /  6.9km/h 7.4mph /  11.9km/h 80.3% 0in /  0.0mm
04:24 77.5 °F /  25.3 °C 71.2 °F /  21.8 °C 29.8in /  1008.8hPa OSO 4.3mph /  6.9km/h 8.7mph /  14km/h 80.8% 0in /  0.0mm
04:29 77.5 °F /  25.3 °C 70.9 °F /  21.6 °C 29.8in /  1008.8hPa OSO 4.4mph /  7.1km/h 9.2mph /  14.8km/h 80% 0in /  0.0mm
04:34 77.5 °F /  25.3 °C 70.9 °F /  21.6 °C 29.8in /  1008.8hPa OSO 4.7mph /  7.6km/h 8.7mph /  14km/h 80% 0in /  0.0mm
04:39 77.5 °F /  25.3 °C 70.9 °F /  21.6 °C 29.8in /  1008.7hPa OSO 4.6mph /  7.4km/h 9.2mph /  14.8km/h 80% 0in /  0.0mm
04:44 77.5 °F /  25.3 °C 70.9 °F /  21.6 °C 29.8in /  1008.7hPa SO 4.3mph /  6.9km/h 8.1mph /  13km/h 80% 0in /  0.0mm
04:49 77.4 °F /  25.2 °C 70.7 °F /  21.5 °C 29.8in /  1008.7hPa SO 4.4mph /  7.1km/h 8mph /  12.9km/h 80% 0in /  0.0mm
04:54 77.4 °F /  25.2 °C 70.7 °F /  21.5 °C 29.8in /  1008.5hPa SO 4.7mph /  7.6km/h 8.1mph /  13km/h 80% 0in /  0.0mm
04:59 77.2 °F /  25.1 °C 70.5 °F /  21.4 °C 29.8in /  1008.5hPa SO 4.8mph /  7.8km/h 8.1mph /  13km/h 80% 0in /  0.0mm
05:04 77.2 °F /  25.1 °C 70.5 °F /  21.4 °C 29.8in /  1008.6hPa OSO 5.2mph /  8.4km/h 8mph /  12.9km/h 80% 0in /  0.0mm
05:09 77.2 °F /  25.1 °C 70.5 °F /  21.4 °C 29.8in /  1008.6hPa SO 5mph /  8.1km/h 9.2mph /  14.8km/h 80% 0in /  0.0mm
05:14 77 °F /  25 °C 70.3 °F /  21.3 °C 29.8in /  1008.6hPa SO 4.7mph /  7.6km/h 9.2mph /  14.8km/h 80% 0in /  0.0mm
05:19 76.8 °F /  24.9 °C 70.3 °F /  21.3 °C 29.8in /  1008.6hPa SO 4.9mph /  7.9km/h 9mph /  14.5km/h 80% 0in /  0.0mm
05:24 76.8 °F /  24.9 °C 70.2 °F /  21.2 °C 29.8in /  1008.6hPa SO 5.4mph /  8.7km/h 8.1mph /  13km/h 80% 0in /  0.0mm
05:29 76.6 °F /  24.8 °C 70.2 °F /  21.2 °C 29.8in /  1008.6hPa SO 5.2mph /  8.3km/h 8mph /  12.9km/h 80% 0in /  0.0mm
05:34 76.6 °F /  24.8 °C 70 °F /  21.1 °C 29.8in /  1008.6hPa SO 4.7mph /  7.6km/h 8.1mph /  13km/h 80% 0in /  0.0mm
05:39 76.6 °F /  24.8 °C 70 °F /  21.1 °C 29.8in /  1008.5hPa SO 4.7mph /  7.6km/h 8mph /  12.9km/h 80% 0in /  0.0mm
05:44 76.6 °F /  24.8 °C 70 °F /  21.1 °C 29.8in /  1008.5hPa SO 4.7mph /  7.6km/h 7.4mph /  11.9km/h 80% 0in /  0.0mm
05:49 76.6 °F /  24.8 °C 70 °F /  21.1 °C 29.8in /  1008.5hPa SO 4.5mph /  7.2km/h 7mph /  11.3km/h 80% 0in /  0.0mm
05:54 76.5 °F /  24.7 °C 69.8 °F /  21 °C 29.8in /  1008.5hPa SSO 4mph /  6.5km/h 10.4mph /  16.7km/h 79.6% 0in /  0.0mm
05:59 76.5 °F /  24.7 °C 69.8 °F /  21 °C 29.8in /  1008.5hPa SSO 4.4mph /  7.1km/h 10mph /  16.1km/h 79.8% 0in /  0.0mm
06:04 76.5 °F /  24.7 °C 69.8 °F /  21 °C 29.8in /  1008.5hPa SSO 5.2mph /  8.4km/h 9.2mph /  14.8km/h 80% 0in /  0.0mm
06:09 76.5 °F /  24.7 °C 69.8 °F /  21 °C 29.8in /  1008.5hPa SSO 5.2mph /  8.4km/h 9mph /  14.5km/h 80% 0in /  0.0mm
06:14 76.5 °F /  24.7 °C 69.8 °F /  21 °C 29.8in /  1008.5hPa SSO 5.2mph /  8.4km/h 9.2mph /  14.8km/h 80% 0in /  0.0mm
06:19 76.5 °F /  24.7 °C 69.8 °F /  21 °C 29.8in /  1008.5hPa SSO 5.4mph /  8.7km/h 9.7mph /  15.6km/h 80% 0in /  0.0mm
06:24 76.5 °F /  24.7 °C 69.8 °F /  21 °C 29.8in /  1008.4hPa SSO 5.9mph /  9.5km/h 10mph /  16.1km/h 80% 0in /  0.0mm
06:29 76.5 °F /  24.7 °C 69.8 °F /  21 °C 29.8in /  1008.4hPa SO 5.7mph /  9.2km/h 9.2mph /  14.8km/h 80% 0in /  0.0mm
06:34 76.5 °F /  24.7 °C 69.6 °F /  20.9 °C 29.8in /  1008.5hPa SO 5.4mph /  8.7km/h 9.7mph /  15.6km/h 79.4% 0in /  0.0mm
06:39 76.5 °F /  24.7 °C 69.6 °F /  20.9 °C 29.8in /  1008.5hPa SO 5.4mph /  8.7km/h 10mph /  16.1km/h 79% 0in /  0.0mm
06:44 76.6 °F /  24.8 °C 69.8 °F /  21 °C 29.8in /  1008.5hPa SO 5.4mph /  8.7km/h 10.4mph /  16.7km/h 79.5% 0in /  0.0mm
06:49 76.6 °F /  24.8 °C 70 °F /  21.1 °C 29.8in /  1008.6hPa SO 5.3mph /  8.6km/h 10mph /  16.1km/h 80% 0in /  0.0mm
06:54 76.6 °F /  24.8 °C 70 °F /  21.1 °C 29.8in /  1008.6hPa SO 5.2mph /  8.4km/h 8.5mph /  13.7km/h 80% 0in /  0.0mm
06:59 76.6 °F /  24.8 °C 70 °F /  21.1 °C 29.8in /  1008.6hPa SO 4.9mph /  7.9km/h 9mph /  14.5km/h 80% 0in /  0.0mm
07:04 76.6 °F /  24.8 °C 70 °F /  21.1 °C 29.8in /  1008.7hPa OSO 4.3mph /  6.9km/h 7mph /  11.3km/h 80% 0in /  0.0mm
07:09 76.5 °F /  24.7 °C 69.8 °F /  21 °C 29.8in /  1008.7hPa Oeste 3.9mph /  6.2km/h 5mph /  8km/h 80% 0in /  0.0mm
07:14 76.5 °F /  24.7 °C 69.8 °F /  21 °C 29.8in /  1008.7hPa Oeste 2.9mph /  4.7km/h 5mph /  8km/h 80% 0in /  0.0mm
07:19 76.3 °F /  24.6 °C 69.6 °F /  20.9 °C 29.8in /  1008.8hPa Oeste 2.9mph /  4.7km/h 5.2mph /  8.4km/h 80% 0in /  0.0mm
07:24 75.9 °F /  24.4 °C 69.4 °F /  20.8 °C 29.8in /  1008.8hPa Oeste 2.9mph /  4.7km/h 5.2mph /  8.4km/h 80% 0in /  0.0mm
07:29 75.9 °F /  24.4 °C 69.1 °F /  20.6 °C 29.8in /  1008.8hPa OSO 2.9mph /  4.7km/h 5.2mph /  8.4km/h 79.6% 0in /  0.0mm
07:34 76.1 °F /  24.5 °C 68.7 °F /  20.4 °C 29.8in /  1008.8hPa SO 2.9mph /  4.7km/h 6.2mph /  10km/h 78.1% 0in /  0.0mm
07:39 76.5 °F /  24.7 °C 68.5 °F /  20.3 °C 29.8in /  1008.8hPa SO 2.9mph /  4.7km/h 7.4mph /  11.9km/h 76.7% 0in /  0.0mm
07:44 76.6 °F /  24.8 °C 68 °F /  20 °C 29.8in /  1008.8hPa SO 3.1mph /  5km/h 7mph /  11.3km/h 75.1% 0in /  0.0mm
07:49 76.8 °F /  24.9 °C 67.6 °F /  19.8 °C 29.8in /  1008.8hPa OSO 3.2mph /  5.2km/h 8.1mph /  13km/h 73.3% 0in /  0.0mm
07:54 77 °F /  25 °C 67.5 °F /  19.7 °C 29.8in /  1008.8hPa OSO 3.6mph /  5.8km/h 8mph /  12.9km/h 72.4% 0in /  0.0mm
07:59 77.4 °F /  25.2 °C 67.3 °F /  19.6 °C 29.8in /  1008.8hPa SO 3.4mph /  5.4km/h 5.2mph /  8.4km/h 71.3% 0in /  0.0mm
08:04 77.5 °F /  25.3 °C 67.1 °F /  19.5 °C 29.8in /  1008.9hPa SO 2.9mph /  4.6km/h 5mph /  8km/h 70.4% 0in /  0.0mm
08:09 77.7 °F /  25.4 °C 66.7 °F /  19.3 °C 29.8in /  1008.9hPa SO 2.9mph /  4.7km/h 5.9mph /  9.5km/h 69% 0in /  0.0mm
08:14 77.9 °F /  25.5 °C 66.4 °F /  19.1 °C 29.8in /  1008.9hPa SO 2.9mph /  4.7km/h 7.4mph /  11.9km/h 67.9% 0in /  0.0mm
08:19 78.1 °F /  25.6 °C 66.7 °F /  19.3 °C 29.8in /  1009.0hPa SSO 3.1mph /  5km/h 7mph /  11.3km/h 68% 0in /  0.0mm
08:24 78.3 °F /  25.7 °C 66.7 °F /  19.3 °C 29.8in /  1009.0hPa SO 3.6mph /  5.8km/h 6mph /  9.7km/h 67.8% 0in /  0.0mm
08:29 78.4 °F /  25.8 °C 66.6 °F /  19.2 °C 29.8in /  1009.0hPa SO 3.4mph /  5.5km/h 6.2mph /  10km/h 67% 0in /  0.0mm
08:34 78.4 °F /  25.8 °C 66.2 °F /  19 °C 29.8in /  1009.1hPa SSO 3.1mph /  5km/h 6.2mph /  10km/h 66.1% 0in /  0.0mm
08:39 78.6 °F /  25.9 °C 66.2 °F /  19 °C 29.8in /  1009.1hPa SSO 3.1mph /  5km/h 6mph /  9.7km/h 65.6% 0in /  0.0mm
08:44 79 °F /  26.1 °C 66 °F /  18.9 °C 29.8in /  1009.1hPa Sur 3.1mph /  5km/h 6.9mph /  11.1km/h 64.7% 0in /  0.0mm
08:49 79 °F /  26.1 °C 65.8 °F /  18.8 °C 29.8in /  1009.2hPa SSE 3.6mph /  5.8km/h 9.2mph /  14.8km/h 64.2% 0in /  0.0mm
08:54 79 °F /  26.1 °C 65.5 °F /  18.6 °C 29.8in /  1009.2hPa SSE 4.7mph /  7.6km/h 9.2mph /  14.8km/h 63.4% 0in /  0.0mm
08:59 79 °F /  26.1 °C 65.3 °F /  18.5 °C 29.8in /  1009.2hPa Sur 5.3mph /  8.5km/h 9.2mph /  14.8km/h 63% 0in /  0.0mm
09:04 79.2 °F /  26.2 °C 65.1 °F /  18.4 °C 29.8in /  1009.3hPa Sur 6.4mph /  10.3km/h 9mph /  14.5km/h 62.1% 0in /  0.0mm
09:09 79.3 °F /  26.3 °C 64.8 °F /  18.2 °C 29.8in /  1009.3hPa Sur 6.3mph /  10.1km/h 9mph /  14.5km/h 60.8% 0in /  0.0mm
09:14 79.9 °F /  26.6 °C 64.6 °F /  18.1 °C 29.8in /  1009.3hPa SSO 5.9mph /  9.5km/h 8.5mph /  13.7km/h 59.7% 0in /  0.0mm
09:19 80.2 °F /  26.8 °C 64.2 °F /  17.9 °C 29.8in /  1009.3hPa SSO 5.9mph /  9.5km/h 9.2mph /  14.8km/h 58.3% 0in /  0.0mm
09:24 80.6 °F /  27 °C 63.9 °F /  17.7 °C 29.8in /  1009.3hPa SSO 5.9mph /  9.5km/h 9.2mph /  14.8km/h 57.1% 0in /  0.0mm
09:29 81 °F /  27.2 °C 63.5 °F /  17.5 °C 29.8in /  1009.3hPa SSO 6mph /  9.6km/h 9.2mph /  14.8km/h 55.4% 0in /  0.0mm
09:34 81.3 °F /  27.4 °C 63 °F /  17.2 °C 29.8in /  1009.3hPa SSO 6.2mph /  10km/h 9mph /  14.5km/h 53.9% 0in /  0.0mm
09:39 81.9 °F /  27.7 °C 62.4 °F /  16.9 °C 29.8in /  1009.3hPa SSO 5.9mph /  9.5km/h 9.2mph /  14.8km/h 51.9% 0in /  0.0mm
09:44 82.4 °F /  28 °C 62.1 °F /  16.7 °C 29.8in /  1009.3hPa OSO 5.2mph /  8.4km/h 9mph /  14.5km/h 50.4% 0in /  0.0mm
09:49 82.8 °F /  28.2 °C 61.5 °F /  16.4 °C 29.8in /  1009.3hPa SO 5mph /  8.1km/h 8mph /  12.9km/h 48.9% 0in /  0.0mm
09:54 83.1 °F /  28.4 °C 61 °F /  16.1 °C 29.8in /  1009.2hPa SSO 4.7mph /  7.6km/h 8.5mph /  13.7km/h 47.2% 0in /  0.0mm
09:59 83.5 °F /  28.6 °C 61.2 °F /  16.2 °C 29.8in /  1009.2hPa OSO 4.7mph /  7.6km/h 9mph /  14.5km/h 47% 0in /  0.0mm
10:04 83.7 °F /  28.7 °C 60.6 °F /  15.9 °C 29.8in /  1009.2hPa OSO 4.7mph /  7.6km/h 11.8mph /  19km/h 46% 0in /  0.0mm
10:09 84 °F /  28.9 °C 60.3 °F /  15.7 °C 29.8in /  1009.2hPa OSO 4.6mph /  7.4km/h 12mph /  19.3km/h 44.7% 0in /  0.0mm
10:14 84.7 °F /  29.3 °C 59 °F /  15 °C 29.8in /  1009.2hPa Oeste 4.3mph /  6.9km/h 12.7mph /  20.4km/h 42% 0in /  0.0mm
10:19 85.5 °F /  29.7 °C 59 °F /  15 °C 29.8in /  1009.2hPa Oeste 4.9mph /  7.9km/h 13mph /  20.9km/h 41% 0in /  0.0mm
10:24 85.6 °F /  29.8 °C 58.1 °F /  14.5 °C 29.8in /  1009.1hPa Oeste 6.2mph /  10km/h 15mph /  24.1km/h 39.2% 0in /  0.0mm
10:29 86 °F /  30 °C 57.7 °F /  14.3 °C 29.8in /  1009.1hPa Oeste 6.6mph /  10.7km/h 15mph /  24.1km/h 38.6% 0in /  0.0mm
10:34 86.2 °F /  30.1 °C 57.7 °F /  14.3 °C 29.8in /  1009.1hPa Oeste 7.6mph /  12.2km/h 14mph /  22.5km/h 38.3% 0in /  0.0mm
10:39 86.5 °F /  30.3 °C 57.9 °F /  14.4 °C 29.8in /  1009.1hPa Oeste 7.5mph /  12.1km/h 14mph /  22.5km/h 37.9% 0in /  0.0mm
10:44 86.7 °F /  30.4 °C 57.2 °F /  14 °C 29.8in /  1009.1hPa Oeste 7.4mph /  11.9km/h 14mph /  22.5km/h 36.9% 0in /  0.0mm
10:49 86.9 °F /  30.5 °C 56.3 °F /  13.5 °C 29.8in /  1009.1hPa ONO 8mph /  12.8km/h 20.7mph /  33.3km/h 35.5% 0in /  0.0mm
10:54 86.9 °F /  30.5 °C 56.1 °F /  13.4 °C 29.8in /  1009.0hPa ONO 9.2mph /  14.8km/h 21mph /  33.8km/h 35% 0in /  0.0mm
10:59 87.3 °F /  30.7 °C 56.3 °F /  13.5 °C 29.8in /  1009.0hPa Oeste 9.9mph /  15.9km/h 18.4mph /  29.6km/h 35% 0in /  0.0mm
11:03 87.4 °F /  30.8 °C 56.5 °F /  13.6 °C 29.8in /  1009.0hPa Oeste 11.2mph /  18km/h 24.8mph /  39.9km/h 34.9% 0in /  0.0mm
11:14 87.6 °F /  30.9 °C 55.8 °F /  13.2 °C 29.8in /  1009.1hPa ONO 12.3mph /  19.8km/h 24.2mph /  38.9km/h 34% 0in /  0.0mm
11:19 88 °F /  31.1 °C 56.1 °F /  13.4 °C 29.8in /  1009.2hPa ONO 12.2mph /  19.6km/h 24mph /  38.6km/h 34% 0in /  0.0mm
11:24 88.2 °F /  31.2 °C 56.1 °F /  13.4 °C 29.8in /  1009.2hPa Oeste 11.8mph /  19km/h 22mph /  35.4km/h 33.9% 0in /  0.0mm
11:29 88.2 °F /  31.2 °C 56.3 °F /  13.5 °C 29.8in /  1009.2hPa Oeste 11.2mph /  18km/h 18mph /  29km/h 34% 0in /  0.0mm
11:34 88.2 °F /  31.2 °C 56.1 °F /  13.4 °C 29.8in /  1009.2hPa Oeste 9.7mph /  15.6km/h 22.5mph /  36.2km/h 33.7% 0in /  0.0mm
11:39 88.2 °F /  31.2 °C 55.8 °F /  13.2 °C 29.8in /  1009.2hPa ONO 10.1mph /  16.3km/h 23mph /  37km/h 33.4% 0in /  0.0mm
11:44 88.3 °F /  31.3 °C 56.3 °F /  13.5 °C 29.8in /  1009.2hPa Oeste 11.4mph /  18.4km/h 22.3mph /  35.9km/h 34% 0in /  0.0mm
11:49 88.3 °F /  31.3 °C 55.9 °F /  13.3 °C 29.8in /  1009.3hPa ONO 11.7mph /  18.8km/h 24.2mph /  38.9km/h 33.5% 0in /  0.0mm
11:51 88.2 °F /  31.2 °C 56.3 °F /  13.5 °C 29.8in /  1009.3hPa ONO 12.5mph /  20.1km/h 24mph /  38.6km/h 34% 0in /  0.0mm
12:44 89.6 °F /  32 °C 55 °F /  12.8 °C 29.8in /  1009.2hPa ONO 12.3mph /  19.8km/h 18.4mph /  29.6km/h 31% 0in /  0.0mm
12:49 90 °F /  32.2 °C 54.7 °F /  12.6 °C 29.8in /  1009.2hPa NO 12.3mph /  19.8km/h 25.3mph /  40.7km/h 30.3% 0in /  0.0mm
12:54 90.5 °F /  32.5 °C 54.9 °F /  12.7 °C 29.8in /  1009.0hPa NO 12.3mph /  19.8km/h 25mph /  40.2km/h 30% 0in /  0.0mm
12:59 91 °F /  32.8 °C 54.9 °F /  12.7 °C 29.8in /  1009.0hPa ONO 11.2mph /  18.1km/h 19mph /  30.6km/h 29.6% 0in /  0.0mm
13:04 90.9 °F /  32.7 °C 54.1 °F /  12.3 °C 29.8in /  1009.0hPa ONO 8.7mph /  14km/h 19.7mph /  31.7km/h 28.9% 0in /  0.0mm
13:09 90.9 °F /  32.7 °C 54.1 °F /  12.3 °C 29.8in /  1009.0hPa Oeste 9.1mph /  14.6km/h 20mph /  32.2km/h 28.9% 0in /  0.0mm
13:14 91 °F /  32.8 °C 53.6 °F /  12 °C 29.8in /  1009.0hPa ONO 10mph /  16.1km/h 18.4mph /  29.6km/h 28.3% 0in /  0.0mm
13:19 91.2 °F /  32.9 °C 53.6 °F /  12 °C 29.8in /  1009.0hPa ONO 10.2mph /  16.4km/h 19.6mph /  31.5km/h 28% 0in /  0.0mm
13:24 91.6 °F /  33.1 °C 53.8 °F /  12.1 °C 29.8in /  1008.9hPa NO 10.7mph /  17.2km/h 20mph /  32.2km/h 28% 0in /  0.0mm
13:29 92.1 °F /  33.4 °C 53.1 °F /  11.7 °C 29.8in /  1008.9hPa ONO 10.4mph /  16.7km/h 21.3mph /  34.3km/h 26.8% 0in /  0.0mm
13:34 91.8 °F /  33.2 °C 53.4 °F /  11.9 °C 29.8in /  1008.9hPa ONO 9.7mph /  15.6km/h 21mph /  33.8km/h 27.3% 0in /  0.0mm
13:39 91.8 °F /  33.2 °C 54 °F /  12.2 °C 29.8in /  1008.7hPa ONO 9.8mph /  15.7km/h 16.3mph /  26.2km/h 28% 0in /  0.0mm
13:44 91.9 °F /  33.3 °C 52.7 °F /  11.5 °C 29.8in /  1008.7hPa ONO 10mph /  16.1km/h 19.2mph /  30.9km/h 26.6% 0in /  0.0mm
13:49 92.3 °F /  33.5 °C 52.5 °F /  11.4 °C 29.8in /  1008.7hPa ONO 10.3mph /  16.6km/h 20.8mph /  33.5km/h 26% 0in /  0.0mm
13:54 92.7 °F /  33.7 °C 52.9 °F /  11.6 °C 29.8in /  1008.6hPa NO 11.2mph /  18km/h 21mph /  33.8km/h 26.1% 0in /  0.0mm
13:59 92.8 °F /  33.8 °C 52.9 °F /  11.6 °C 29.8in /  1008.6hPa NO 10.9mph /  17.5km/h 19.7mph /  31.7km/h 26% 0in /  0.0mm
14:04 93.2 °F /  34 °C 53.6 °F /  12 °C 29.8in /  1008.6hPa ONO 10.2mph /  16.4km/h 20mph /  32.2km/h 26.4% 0in /  0.0mm
14:09 93.6 °F /  34.2 °C 53.6 °F /  12 °C 29.8in /  1008.4hPa ONO 10.1mph /  16.2km/h 18.4mph /  29.6km/h 26% 0in /  0.0mm
14:14 93.6 °F /  34.2 °C 52.5 °F /  11.4 °C 29.8in /  1008.4hPa ONO 9.7mph /  15.6km/h 18mph /  29km/h 25.1% 0in /  0.0mm
14:19 93.6 °F /  34.2 °C 51.4 °F /  10.8 °C 29.8in /  1008.4hPa NO 9.8mph /  15.8km/h 19mph /  30.6km/h 24.2% 0in /  0.0mm
14:24 93.9 °F /  34.4 °C 51.3 °F /  10.7 °C 29.8in /  1008.3hPa ONO 10.2mph /  16.4km/h 19mph /  30.6km/h 23.7% 0in /  0.0mm
14:29 94.3 °F /  34.6 °C 52.3 °F /  11.3 °C 29.8in /  1008.3hPa NO 9.5mph /  15.3km/h 16.1mph /  25.9km/h 24.4% 0in /  0.0mm
14:34 94.3 °F /  34.6 °C 52.3 °F /  11.3 °C 29.8in /  1008.3hPa ONO 7.6mph /  12.2km/h 16mph /  25.7km/h 24.4% 0in /  0.0mm
14:39 94.5 °F /  34.7 °C 52.5 °F /  11.4 °C 29.8in /  1008.1hPa Oeste 7.3mph /  11.7km/h 14mph /  22.5km/h 24.5% 0in /  0.0mm
14:44 94.6 °F /  34.8 °C 52.3 °F /  11.3 °C 29.8in /  1008.1hPa NO 6.4mph /  10.3km/h 16.1mph /  25.9km/h 24.1% 0in /  0.0mm
14:49 94.6 °F /  34.8 °C 52.3 °F /  11.3 °C 29.8in /  1008.1hPa ONO 6.9mph /  11.1km/h 16mph /  25.7km/h 24% 0in /  0.0mm
14:54 94.8 °F /  34.9 °C 52.5 °F /  11.4 °C 29.8in /  1007.9hPa Oeste 8.1mph /  13km/h 16.1mph /  25.9km/h 24% 0in /  0.0mm
14:59 95.4 °F /  35.2 °C 52.9 °F /  11.6 °C 29.8in /  1007.9hPa NO 8mph /  12.8km/h 16mph /  25.7km/h 24% 0in /  0.0mm
15:04 95.4 °F /  35.2 °C 53.1 °F /  11.7 °C 29.8in /  1007.9hPa NNE 7.6mph /  12.2km/h 14mph /  22.5km/h 24.1% 0in /  0.0mm
15:09 95.4 °F /  35.2 °C 52.9 °F /  11.6 °C 29.8in /  1007.7hPa NO 7mph /  11.2km/h 17.3mph /  27.8km/h 24% 0in /  0.0mm
15:14 95.4 °F /  35.2 °C 52.5 °F /  11.4 °C 29.8in /  1007.7hPa ONO 5.4mph /  8.7km/h 17mph /  27.4km/h 23.7% 0in /  0.0mm
15:19 95.2 °F /  35.1 °C 52.7 °F /  11.5 °C 29.8in /  1007.7hPa Oeste 6.3mph /  10.1km/h 17.3mph /  27.8km/h 24% 0in /  0.0mm
15:24 95.4 °F /  35.2 °C 52.5 °F /  11.4 °C 29.8in /  1007.6hPa ONO 8.5mph /  13.7km/h 17mph /  27.4km/h 23.7% 0in /  0.0mm
15:29 95.7 °F /  35.4 °C 52.9 °F /  11.6 °C 29.8in /  1007.6hPa NO 7.9mph /  12.7km/h 15mph /  24.1km/h 23.7% 0in /  0.0mm
15:34 95.5 °F /  35.3 °C 52.7 °F /  11.5 °C 29.8in /  1007.6hPa ONO 6.4mph /  10.3km/h 15mph /  24.1km/h 23.7% 0in /  0.0mm
15:39 95.9 °F /  35.5 °C 53.4 °F /  11.9 °C 29.8in /  1007.4hPa NO 6.3mph /  10.1km/h 15.6mph /  25.1km/h 24% 0in /  0.0mm
15:44 96.3 °F /  35.7 °C 53.6 °F /  12 °C 29.8in /  1007.4hPa Oeste 5.9mph /  9.5km/h 18.4mph /  29.6km/h 24% 0in /  0.0mm
15:49 96.4 °F /  35.8 °C 52.9 °F /  11.6 °C 29.8in /  1007.4hPa ONO 6.3mph /  10.2km/h 18mph /  29km/h 23.2% 0in /  0.0mm
15:54 96.4 °F /  35.8 °C 53.4 °F /  11.9 °C 29.7in /  1007.3hPa SO 7.4mph /  11.9km/h 9mph /  14.5km/h 23.6% 0in /  0.0mm
15:59 97.2 °F /  36.2 °C 53.6 °F /  12 °C 29.7in /  1007.3hPa ONO 6.5mph /  10.5km/h 15.2mph /  24.5km/h 23.4% 0in /  0.0mm
16:04 97 °F /  36.1 °C 53.8 °F /  12.1 °C 29.7in /  1007.3hPa NNO 4.7mph /  7.6km/h 15mph /  24.1km/h 23.6% 0in /  0.0mm
16:09 96.8 °F /  36 °C 54 °F /  12.2 °C 29.7in /  1007.1hPa NNE 5.7mph /  9.1km/h 15mph /  24.1km/h 23.9% 0in /  0.0mm
16:14 96.6 °F /  35.9 °C 54 °F /  12.2 °C 29.7in /  1007.1hPa North 8.1mph /  13km/h 14mph /  22.5km/h 24% 0in /  0.0mm
16:19 96.8 °F /  36 °C 54 °F /  12.2 °C 29.7in /  1007.2hPa ONO 7.8mph /  12.5km/h 16.1mph /  25.9km/h 24% 0in /  0.0mm
16:24 96.6 °F /  35.9 °C 54 °F /  12.2 °C 29.7in /  1007.2hPa Oeste 6.9mph /  11.1km/h 17.3mph /  27.8km/h 24% 0in /  0.0mm
16:29 96.6 °F /  35.9 °C 54 °F /  12.2 °C 29.7in /  1007.2hPa ONO 7.4mph /  11.9km/h 17mph /  27.4km/h 24% 0in /  0.0mm
16:34 96.8 °F /  36 °C 54 °F /  12.2 °C 29.7in /  1007.2hPa NO 8.7mph /  14km/h 15mph /  24.1km/h 23.9% 0in /  0.0mm
16:39 97.2 °F /  36.2 °C 53.8 °F /  12.1 °C 29.7in /  1007.1hPa NO 8.4mph /  13.5km/h 14mph /  22.5km/h 23.6% 0in /  0.0mm
16:44 97.3 °F /  36.3 °C 53.6 °F /  12 °C 29.7in /  1007.1hPa ONO 7.6mph /  12.2km/h 13mph /  20.9km/h 23.1% 0in /  0.0mm
16:49 97.7 °F /  36.5 °C 53.6 °F /  12 °C 29.7in /  1007.1hPa NO 7.4mph /  11.9km/h 13.8mph /  22.2km/h 23% 0in /  0.0mm
16:54 97.3 °F /  36.3 °C 53.2 °F /  11.8 °C 29.7in /  1007.1hPa ONO 6.9mph /  11.1km/h 15.2mph /  24.5km/h 23% 0in /  0.0mm
16:59 97.3 °F /  36.3 °C 53.8 °F /  12.1 °C 29.7in /  1007.1hPa NNO 6.4mph /  10.3km/h 15mph /  24.1km/h 23.3% 0in /  0.0mm
17:04 97.5 °F /  36.4 °C 53.8 °F /  12.1 °C 29.7in /  1007.1hPa NNE 5.2mph /  8.4km/h 7mph /  11.3km/h 23.2% 0in /  0.0mm
17:09 97.7 °F /  36.5 °C 54.3 °F /  12.4 °C 29.7in /  1006.9hPa NO 5.3mph /  8.5km/h 17.3mph /  27.8km/h 23.6% 0in /  0.0mm
17:14 97.5 °F /  36.4 °C 54 °F /  12.2 °C 29.7in /  1006.9hPa ONO 5.4mph /  8.7km/h 17mph /  27.4km/h 23.4% 0in /  0.0mm
17:19 97.7 °F /  36.5 °C 54.1 °F /  12.3 °C 29.7in /  1006.9hPa NO 5.7mph /  9.1km/h 12mph /  19.3km/h 23.4% 0in /  0.0mm
17:24 98.1 °F /  36.7 °C 53.8 °F /  12.1 °C 29.7in /  1006.6hPa NO 6.2mph /  10km/h 11.5mph /  18.5km/h 23% 0in /  0.0mm
17:29 98.2 °F /  36.8 °C 54 °F /  12.2 °C 29.7in /  1006.6hPa ONO 6.2mph /  10km/h 13.5mph /  21.7km/h 23% 0in /  0.0mm
17:34 98.2 °F /  36.8 °C 54 °F /  12.2 °C 29.7in /  1006.6hPa ONO 6.2mph /  10km/h 13mph /  20.9km/h 23% 0in /  0.0mm
17:39 98.2 °F /  36.8 °C 54 °F /  12.2 °C 29.7in /  1006.6hPa ONO 6.3mph /  10.1km/h 13mph /  20.9km/h 22.9% 0in /  0.0mm
17:44 98.2 °F /  36.8 °C 53.8 °F /  12.1 °C 29.7in /  1006.6hPa NO 6.4mph /  10.3km/h 13.5mph /  21.7km/h 22.8% 0in /  0.0mm
17:49 98.6 °F /  37 °C 53.2 °F /  11.8 °C 29.7in /  1006.6hPa ONO 6.3mph /  10.2km/h 14mph /  22.5km/h 22.1% 0in /  0.0mm
17:54 98.8 °F /  37.1 °C 55.2 °F /  12.9 °C 29.7in /  1006.4hPa NNO 6.2mph /  10km/h 17.3mph /  27.8km/h 23.6% 0in /  0.0mm
17:59 98.1 °F /  36.7 °C 58.3 °F /  14.6 °C 29.7in /  1006.4hPa NE 6.9mph /  11.1km/h 17.3mph /  27.8km/h 27% 0in /  0.0mm
18:04 97 °F /  36.1 °C 58.5 °F /  14.7 °C 29.7in /  1006.6hPa NE 8.5mph /  13.7km/h 18.4mph /  29.6km/h 27.9% 0in /  0.0mm
18:09 96.6 °F /  35.9 °C 58.8 °F /  14.9 °C 29.7in /  1006.6hPa NE 9.3mph /  15km/h 18.5mph /  29.8km/h 28.7% 0in /  0.0mm
18:14 96.4 °F /  35.8 °C 59 °F /  15 °C 29.7in /  1006.6hPa NE 11.4mph /  18.4km/h 19mph /  30.6km/h 29% 0in /  0.0mm
18:19 96.3 °F /  35.7 °C 58.3 °F /  14.6 °C 29.7in /  1006.6hPa NE 11.1mph /  17.8km/h 19.6mph /  31.5km/h 28.5% 0in /  0.0mm
18:24 96.3 °F /  35.7 °C 57.9 °F /  14.4 °C 29.7in /  1006.5hPa Este 10.2mph /  16.4km/h 20mph /  32.2km/h 28.1% 0in /  0.0mm
18:29 96.3 °F /  35.7 °C 57.9 °F /  14.4 °C 29.7in /  1006.5hPa NE 9.8mph /  15.7km/h 17.3mph /  27.8km/h 28% 0in /  0.0mm
18:34 95.7 °F /  35.4 °C 57.4 °F /  14.1 °C 29.7in /  1006.6hPa Este 8.7mph /  14km/h 16.1mph /  25.9km/h 28% 0in /  0.0mm
18:39 95.5 °F /  35.3 °C 57.2 °F /  14 °C 29.7in /  1006.6hPa Este 8.7mph /  14km/h 16mph /  25.7km/h 28.1% 0in /  0.0mm
18:44 95.5 °F /  35.3 °C 57.2 °F /  14 °C 29.7in /  1006.6hPa ESE 8.7mph /  14km/h 20.8mph /  33.5km/h 28.1% 0in /  0.0mm
18:49 95.2 °F /  35.1 °C 57 °F /  13.9 °C 29.7in /  1006.6hPa SE 9.6mph /  15.4km/h 23mph /  37km/h 28.1% 0in /  0.0mm
18:54 95.2 °F /  35.1 °C 57 °F /  13.9 °C 29.7in /  1006.5hPa SE 11.8mph /  19km/h 23mph /  37km/h 28% 0in /  0.0mm
18:59 95.4 °F /  35.2 °C 57 °F /  13.9 °C 29.7in /  1006.5hPa SE 11.6mph /  18.7km/h 18.5mph /  29.8km/h 28% 0in /  0.0mm
19:04 95.2 °F /  35.1 °C 56.8 °F /  13.8 °C 29.7in /  1006.7hPa SE 11.2mph /  18km/h 19mph /  30.6km/h 28% 0in /  0.0mm
19:09 95.2 °F /  35.1 °C 56.8 °F /  13.8 °C 29.7in /  1006.7hPa SE 10.9mph /  17.5km/h 17.3mph /  27.8km/h 28% 0in /  0.0mm
19:14 95.2 °F /  35.1 °C 56.8 °F /  13.8 °C 29.7in /  1006.7hPa SE 10mph /  16.1km/h 20.7mph /  33.3km/h 28% 0in /  0.0mm
19:19 94.8 °F /  34.9 °C 56.7 °F /  13.7 °C 29.7in /  1006.9hPa SE 10.1mph /  16.2km/h 21mph /  33.8km/h 28% 0in /  0.0mm
19:24 94.8 °F /  34.9 °C 56.7 °F /  13.7 °C 29.7in /  1006.9hPa SE 10.2mph /  16.4km/h 16mph /  25.7km/h 28% 0in /  0.0mm
19:29 94.8 °F /  34.9 °C 56.7 °F /  13.7 °C 29.7in /  1006.9hPa ESE 9.6mph /  15.5km/h 15.2mph /  24.5km/h 28% 0in /  0.0mm
19:34 94.6 °F /  34.8 °C 56.5 °F /  13.6 °C 29.7in /  1007.0hPa SE 8.1mph /  13km/h 15.2mph /  24.5km/h 28% 0in /  0.0mm
19:39 94.5 °F /  34.7 °C 56.3 °F /  13.5 °C 29.7in /  1007.0hPa SE 8.3mph /  13.3km/h 15mph /  24.1km/h 28.1% 0in /  0.0mm
19:44 94.3 °F /  34.6 °C 56.1 °F /  13.4 °C 29.7in /  1007.0hPa SE 8.7mph /  14km/h 16.1mph /  25.9km/h 28% 0in /  0.0mm
19:49 94.1 °F /  34.5 °C 56.1 °F /  13.4 °C 29.7in /  1007.3hPa SE 8.3mph /  13.4km/h 16mph /  25.7km/h 28% 0in /  0.0mm
19:54 93.9 °F /  34.4 °C 56.1 °F /  13.4 °C 29.7in /  1007.3hPa ESE 7.4mph /  11.9km/h 13mph /  20.9km/h 28.3% 0in /  0.0mm
19:59 93.7 °F /  34.3 °C 55.8 °F /  13.2 °C 29.7in /  1007.3hPa SE 7.4mph /  11.9km/h 13.8mph /  22.2km/h 28% 0in /  0.0mm
20:04 93.4 °F /  34.1 °C 56.3 °F /  13.5 °C 29.8in /  1007.5hPa ESE 7.4mph /  11.9km/h 14mph /  22.5km/h 28.9% 0in /  0.0mm
20:09 93.2 °F /  34 °C 56.1 °F /  13.4 °C 29.8in /  1007.5hPa ESE 7.7mph /  12.4km/h 15mph /  24.1km/h 29% 0in /  0.0mm
20:14 92.8 °F /  33.8 °C 55.9 °F /  13.3 °C 29.8in /  1007.5hPa ESE 8.5mph /  13.7km/h 15mph /  24.1km/h 29% 0in /  0.0mm
20:19 92.8 °F /  33.8 °C 56.5 °F /  13.6 °C 29.8in /  1007.7hPa ESE 8.2mph /  13.2km/h 13mph /  20.9km/h 29.6% 0in /  0.0mm
20:24 92.3 °F /  33.5 °C 56.5 °F /  13.6 °C 29.8in /  1007.7hPa Este 7.4mph /  11.9km/h 13mph /  20.9km/h 30% 0in /  0.0mm
20:29 92.1 °F /  33.4 °C 56.1 °F /  13.4 °C 29.8in /  1007.7hPa NE 7mph /  11.2km/h 10mph /  16.1km/h 30% 0in /  0.0mm
20:34 91.8 °F /  33.2 °C 58.1 °F /  14.5 °C 29.8in /  1008.0hPa NE 5.9mph /  9.5km/h 15.6mph /  25.1km/h 32.5% 0in /  0.0mm
20:39 90.3 °F /  32.4 °C 63.1 °F /  17.3 °C 29.8in /  1008.0hPa NE 6.5mph /  10.5km/h 16.1mph /  25.9km/h 40.5% 0in /  0.0mm
20:44 88.5 °F /  31.4 °C 64.2 °F /  17.9 °C 29.8in /  1008.0hPa NE 8.1mph /  13km/h 17.3mph /  27.8km/h 44.8% 0in /  0.0mm
20:49 87.4 °F /  30.8 °C 64.4 °F /  18 °C 29.8in /  1008.2hPa NE 8.6mph /  13.9km/h 17mph /  27.4km/h 46.6% 0in /  0.0mm
20:54 86.7 °F /  30.4 °C 65.5 °F /  18.6 °C 29.8in /  1008.2hPa NE 10mph /  16.1km/h 20.7mph /  33.3km/h 49.3% 0in /  0.0mm
20:59 85.6 °F /  29.8 °C 66 °F /  18.9 °C 29.8in /  1008.2hPa NE 10.4mph /  16.8km/h 21mph /  33.8km/h 52% 0in /  0.0mm
21:04 84.7 °F /  29.3 °C 66.2 °F /  19 °C 29.8in /  1008.3hPa NNE 11.4mph /  18.4km/h 20mph /  32.2km/h 53.6% 0in /  0.0mm
21:09 84.2 °F /  29 °C 66.4 °F /  19.1 °C 29.8in /  1008.3hPa NE 12.1mph /  19.4km/h 20mph /  32.2km/h 55.2% 0in /  0.0mm
21:14 83.8 °F /  28.8 °C 66.9 °F /  19.4 °C 29.8in /  1008.3hPa NNE 13.5mph /  21.7km/h 19mph /  30.6km/h 56.7% 0in /  0.0mm
21:19 83.5 °F /  28.6 °C 67.3 °F /  19.6 °C 29.8in /  1008.5hPa NNE 13mph /  21km/h 19mph /  30.6km/h 58.4% 0in /  0.0mm
21:24 82.9 °F /  28.3 °C 67.5 °F /  19.7 °C 29.8in /  1008.5hPa NE 11.8mph /  19km/h 17.3mph /  27.8km/h 59.5% 0in /  0.0mm
21:29 82.8 °F /  28.2 °C 67.6 °F /  19.8 °C 29.8in /  1008.5hPa NE 11.5mph /  18.5km/h 18.5mph /  29.8km/h 60.5% 0in /  0.0mm
21:34 82.2 °F /  27.9 °C 67.6 °F /  19.8 °C 29.8in /  1008.8hPa NNE 10.7mph /  17.2km/h 19mph /  30.6km/h 61.6% 0in /  0.0mm
21:39 81.9 °F /  27.7 °C 67.8 °F /  19.9 °C 29.8in /  1008.8hPa NNE 10.8mph /  17.4km/h 18mph /  29km/h 62.6% 0in /  0.0mm
21:44 81.7 °F /  27.6 °C 68 °F /  20 °C 29.8in /  1008.8hPa NE 11.2mph /  18km/h 19.6mph /  31.5km/h 63.5% 0in /  0.0mm
21:49 81.1 °F /  27.3 °C 68.4 °F /  20.2 °C 29.8in /  1009.0hPa NE 11.4mph /  18.3km/h 20mph /  32.2km/h 64.8% 0in /  0.0mm
21:54 81.1 °F /  27.3 °C 68.5 °F /  20.3 °C 29.8in /  1009.0hPa NE 11.8mph /  19km/h 20.7mph /  33.3km/h 65.8% 0in /  0.0mm
21:59 81 °F /  27.2 °C 68.5 °F /  20.3 °C 29.8in /  1009.0hPa NE 11.2mph /  18.1km/h 21mph /  33.8km/h 66.2% 0in /  0.0mm
22:04 80.8 °F /  27.1 °C 68.7 °F /  20.4 °C 29.8in /  1009.2hPa NE 10.2mph /  16.4km/h 17.3mph /  27.8km/h 67% 0in /  0.0mm
22:09 80.6 °F /  27 °C 68.9 °F /  20.5 °C 29.8in /  1009.2hPa NE 10.5mph /  16.9km/h 20.8mph /  33.5km/h 67.9% 0in /  0.0mm
22:14 80.2 °F /  26.8 °C 69.1 °F /  20.6 °C 29.8in /  1009.2hPa NNE 11.2mph /  18km/h 26.1mph /  42km/h 69% 0in /  0.0mm
22:19 80.1 °F /  26.7 °C 69.3 °F /  20.7 °C 29.8in /  1009.4hPa NE 11.9mph /  19.1km/h 26.5mph /  42.6km/h 70% 0in /  0.0mm
22:24 79.9 °F /  26.6 °C 69.6 °F /  20.9 °C 29.8in /  1009.4hPa NE 13.5mph /  21.7km/h 26mph /  41.8km/h 71% 0in /  0.0mm
22:29 79.9 °F /  26.6 °C 69.6 °F /  20.9 °C 29.8in /  1009.4hPa NE 12.5mph /  20.1km/h 16mph /  25.7km/h 71% 0in /  0.0mm
22:34 79.7 °F /  26.5 °C 69.4 °F /  20.8 °C 29.8in /  1009.6hPa NE 9.7mph /  15.6km/h 16.3mph /  26.2km/h 71% 0in /  0.0mm
22:39 79.5 °F /  26.4 °C 69.6 °F /  20.9 °C 29.8in /  1009.6hPa NE 10mph /  16.1km/h 19mph /  30.6km/h 71.8% 0in /  0.0mm
22:44 79.3 °F /  26.3 °C 69.6 °F /  20.9 °C 29.8in /  1009.6hPa NE 10.7mph /  17.2km/h 19mph /  30.6km/h 72% 0in /  0.0mm
22:49 79.3 °F /  26.3 °C 69.8 °F /  21 °C 29.8in /  1009.8hPa NE 10.8mph /  17.4km/h 20.7mph /  33.3km/h 72.6% 0in /  0.0mm
22:54 79.2 °F /  26.2 °C 70.2 °F /  21.2 °C 29.8in /  1009.8hPa NE 11.2mph /  18km/h 21mph /  33.8km/h 74.3% 0in /  0.0mm
22:59 78.8 °F /  26 °C 70.3 °F /  21.3 °C 29.8in /  1009.8hPa NE 11.6mph /  18.7km/h 21mph /  33.8km/h 75.5% 0in /  0.0mm
23:04 78.6 °F /  25.9 °C 70.3 °F /  21.3 °C 29.8in /  1009.9hPa NE 12.5mph /  20.1km/h 18.4mph /  29.6km/h 76% 0in /  0.0mm
23:09 78.6 °F /  25.9 °C 70.3 °F /  21.3 °C 29.8in /  1009.9hPa NE 12mph /  19.3km/h 18.4mph /  29.6km/h 76% 0in /  0.0mm
23:14 78.4 °F /  25.8 °C 70.2 °F /  21.2 °C 29.8in /  1009.9hPa NE 10.7mph /  17.2km/h 18.1mph /  29.1km/h 76% 0in /  0.0mm
23:19 78.4 °F /  25.8 °C 70.2 °F /  21.2 °C 29.8in /  1010.0hPa NE 10.4mph /  16.8km/h 18.4mph /  29.6km/h 76% 0in /  0.0mm
23:24 78.4 °F /  25.8 °C 70.3 °F /  21.3 °C 29.8in /  1010.0hPa NE 9.7mph /  15.6km/h 17mph /  27.4km/h 76% 0in /  0.0mm
23:29 78.4 °F /  25.8 °C 70 °F /  21.1 °C 29.8in /  1010.0hPa NE 9.7mph /  15.6km/h 16.3mph /  26.2km/h 75.1% 0in /  0.0mm
23:34 78.4 °F /  25.8 °C 70 °F /  21.1 °C 29.8in /  1010.2hPa NE 9.7mph /  15.6km/h 16mph /  25.7km/h 75% 0in /  0.0mm
23:39 78.6 °F /  25.9 °C 70 °F /  21.1 °C 29.8in /  1010.2hPa NE 9.1mph /  14.6km/h 13mph /  20.9km/h 75% 0in /  0.0mm
23:44 78.4 °F /  25.8 °C 70 °F /  21.1 °C 29.8in /  1010.2hPa NE 7.4mph /  11.9km/h 15.2mph /  24.5km/h 75% 0in /  0.0mm
23:49 78.4 °F /  25.8 °C 70 °F /  21.1 °C 29.8in /  1010.2hPa NE 7.6mph /  12.2km/h 15mph /  24.1km/h 75% 0in /  0.0mm
23:54 78.4 °F /  25.8 °C 70 °F /  21.1 °C 29.8in /  1010.2hPa NE 8.1mph /  13km/h 15mph /  24.1km/h 75.6% 0in /  0.0mm
23:59 78.3 °F /  25.7 °C 70.2 °F /  21.2 °C 29.8in /  1010.2hPa NE 8.3mph /  13.3km/h 15mph /  24.1km/h 76.3% 0in /  0.0mm
Murcia-Puente Tocinos, España
Compliments of Weather Underground - 3.5 mb

La estación de MeteoMurcia.com, publica sus datos en los siguientes proyectos:

Weather Underground PWS IMURCIAP2 Meteoclimatic www.awekas.at

W3Counter
Web Analytics